sensor_id;sensor_type;location;lat;lon;timestamp;P1;durP1;ratioP1;P2;durP2;ratioP2
16430;SDS011;8325;49.284;7.238;2022-12-18T05:04:42;16.00;;;7.80;;
16430;SDS011;8325;49.284;7.238;2022-12-18T05:08:54;25.80;;;9.60;;
16430;SDS011;8325;49.284;7.238;2022-12-18T05:13:05;21.53;;;10.53;;
16430;SDS011;8325;49.284;7.238;2022-12-18T05:17:17;24.27;;;10.70;;
16430;SDS011;8325;49.284;7.238;2022-12-18T05:21:29;25.90;;;10.43;;
16430;SDS011;8325;49.284;7.238;2022-12-18T05:25:41;21.13;;;9.20;;
16430;SDS011;8325;49.284;7.238;2022-12-18T05:29:52;23.80;;;9.97;;
16430;SDS011;8325;49.284;7.238;2022-12-18T05:34:04;23.63;;;9.50;;
16430;SDS011;8325;49.284;7.238;2022-12-18T05:38:16;21.10;;;10.23;;
16430;SDS011;8325;49.284;7.238;2022-12-18T05:42:27;23.40;;;9.20;;
16430;SDS011;8325;49.284;7.238;2022-12-18T05:46:39;18.30;;;9.10;;
16430;SDS011;8325;49.284;7.238;2022-12-18T05:50:51;21.60;;;9.97;;
16430;SDS011;8325;49.284;7.238;2022-12-18T05:55:02;23.63;;;10.97;;
16430;SDS011;8325;49.284;7.238;2022-12-18T05:59:14;22.10;;;9.77;;
16430;SDS011;8325;49.284;7.238;2022-12-18T06:03:25;21.93;;;9.60;;
16430;SDS011;8325;49.284;7.238;2022-12-18T06:07:44;26.40;;;10.50;;
16430;SDS011;8325;49.284;7.238;2022-12-18T06:11:55;24.77;;;9.87;;
16430;SDS011;8325;49.284;7.238;2022-12-18T06:16:07;22.30;;;10.47;;
16430;SDS011;8325;49.284;7.238;2022-12-18T06:20:19;22.50;;;9.73;;
16430;SDS011;8325;49.284;7.238;2022-12-18T06:24:31;25.60;;;10.47;;
16430;SDS011;8325;49.284;7.238;2022-12-18T06:28:42;20.33;;;9.87;;
16430;SDS011;8325;49.284;7.238;2022-12-18T06:32:54;20.20;;;9.97;;
16430;SDS011;8325;49.284;7.238;2022-12-18T06:37:07;21.10;;;9.43;;
16430;SDS011;8325;49.284;7.238;2022-12-18T06:41:19;22.67;;;10.73;;
16430;SDS011;8325;49.284;7.238;2022-12-18T06:45:32;27.73;;;10.10;;
16430;SDS011;8325;49.284;7.238;2022-12-18T06:49:43;20.87;;;10.23;;
16430;SDS011;8325;49.284;7.238;2022-12-18T06:53:55;27.10;;;10.70;;
16430;SDS011;8325;49.284;7.238;2022-12-18T06:58:06;22.17;;;9.33;;
16430;SDS011;8325;49.284;7.238;2022-12-18T07:02:18;17.20;;;8.27;;
16430;SDS011;8325;49.284;7.238;2022-12-18T07:06:30;17.97;;;9.13;;
16430;SDS011;8325;49.284;7.238;2022-12-18T07:10:42;22.20;;;9.27;;
16430;SDS011;8325;49.284;7.238;2022-12-18T07:14:58;19.67;;;9.80;;
16430;SDS011;8325;49.284;7.238;2022-12-18T07:19:09;23.93;;;9.97;;
16430;SDS011;8325;49.284;7.238;2022-12-18T07:23:21;23.23;;;9.77;;
16430;SDS011;8325;49.284;7.238;2022-12-18T07:27:32;19.67;;;10.33;;
16430;SDS011;8325;49.284;7.238;2022-12-18T07:31:44;32.63;;;16.23;;
16430;SDS011;8325;49.284;7.238;2022-12-18T07:35:58;38.13;;;18.47;;
16430;SDS011;8325;49.284;7.238;2022-12-18T07:40:11;23.50;;;10.87;;
16430;SDS011;8325;49.284;7.238;2022-12-18T07:44:23;27.30;;;11.33;;
16430;SDS011;8325;49.284;7.238;2022-12-18T07:48:35;21.23;;;10.13;;
16430;SDS011;8325;49.284;7.238;2022-12-18T07:52:47;25.97;;;11.00;;
16430;SDS011;8325;49.284;7.238;2022-12-18T07:56:59;23.20;;;10.97;;
16430;SDS011;8325;49.284;7.238;2022-12-18T08:01:11;23.07;;;11.87;;
16430;SDS011;8325;49.284;7.238;2022-12-18T08:05:23;22.47;;;11.37;;
16430;SDS011;8325;49.284;7.238;2022-12-18T08:09:34;27.63;;;11.97;;
16430;SDS011;8325;49.284;7.238;2022-12-18T08:13:46;27.23;;;11.87;;
16430;SDS011;8325;49.284;7.238;2022-12-18T08:17:57;27.17;;;12.00;;
16430;SDS011;8325;49.284;7.238;2022-12-18T08:22:09;23.50;;;10.40;;
16430;SDS011;8325;49.284;7.238;2022-12-18T08:26:20;19.67;;;10.53;;
16430;SDS011;8325;49.284;7.238;2022-12-18T08:30:33;23.30;;;11.90;;
16430;SDS011;8325;49.284;7.238;2022-12-18T08:34:44;25.27;;;11.60;;
16430;SDS011;8325;49.284;7.238;2022-12-18T08:38:56;21.67;;;12.33;;
16430;SDS011;8325;49.284;7.238;2022-12-18T08:43:09;23.30;;;11.50;;
16430;SDS011;8325;49.284;7.238;2022-12-18T08:47:40;24.70;;;12.33;;
16430;SDS011;8325;49.284;7.238;2022-12-18T08:51:53;26.97;;;11.77;;
16430;SDS011;8325;49.284;7.238;2022-12-18T08:56:05;29.77;;;13.40;;
16430;SDS011;8325;49.284;7.238;2022-12-18T09:00:17;31.93;;;15.57;;
16430;SDS011;8325;49.284;7.238;2022-12-18T09:04:29;24.70;;;11.93;;
16430;SDS011;8325;49.284;7.238;2022-12-18T09:08:41;25.67;;;12.27;;
16430;SDS011;8325;49.284;7.238;2022-12-18T09:12:53;27.57;;;12.37;;
16430;SDS011;8325;49.284;7.238;2022-12-18T09:17:05;30.73;;;13.37;;
16430;SDS011;8325;49.284;7.238;2022-12-18T09:21:20;31.00;;;15.73;;
16430;SDS011;8325;49.284;7.238;2022-12-18T09:25:32;28.20;;;15.63;;
16430;SDS011;8325;49.284;7.238;2022-12-18T09:29:46;31.77;;;14.87;;
16430;SDS011;8325;49.284;7.238;2022-12-18T09:33:58;49.70;;;23.33;;
16430;SDS011;8325;49.284;7.238;2022-12-18T09:38:13;34.13;;;16.60;;
16430;SDS011;8325;49.284;7.238;2022-12-18T09:42:26;33.97;;;16.77;;
16430;SDS011;8325;49.284;7.238;2022-12-18T09:46:40;32.77;;;16.30;;
16430;SDS011;8325;49.284;7.238;2022-12-18T09:51:36;37.40;;;15.87;;
16430;SDS011;8325;49.284;7.238;2022-12-18T09:56:26;32.17;;;15.70;;
16430;SDS011;8325;49.284;7.238;2022-12-18T10:01:00;33.00;;;15.87;;
16430;SDS011;8325;49.284;7.238;2022-12-18T10:10:37;30.27;;;15.43;;
16430;SDS011;8325;49.284;7.238;2022-12-18T10:15:35;30.27;;;16.07;;
16430;SDS011;8325;49.284;7.238;2022-12-18T10:19:48;28.33;;;15.03;;
16430;SDS011;8325;49.284;7.238;2022-12-18T10:28:39;32.47;;;15.37;;
16430;SDS011;8325;49.284;7.238;2022-12-18T10:32:53;33.33;;;16.17;;
16430;SDS011;8325;49.284;7.238;2022-12-18T10:37:06;32.00;;;16.13;;
16430;SDS011;8325;49.284;7.238;2022-12-18T10:41:24;31.93;;;15.67;;
16430;SDS011;8325;49.284;7.238;2022-12-18T10:45:40;32.40;;;16.00;;
16430;SDS011;8325;49.284;7.238;2022-12-18T10:49:52;30.20;;;14.33;;
16430;SDS011;8325;49.284;7.238;2022-12-18T10:54:12;30.37;;;14.73;;
16430;SDS011;8325;49.284;7.238;2022-12-18T10:58:27;32.30;;;16.43;;
16430;SDS011;8325;49.284;7.238;2022-12-18T11:02:43;31.17;;;15.77;;
16430;SDS011;8325;49.284;7.238;2022-12-18T11:07:03;32.50;;;16.30;;
16430;SDS011;8325;49.284;7.238;2022-12-18T11:11:32;38.33;;;18.87;;
16430;SDS011;8325;49.284;7.238;2022-12-18T11:16:01;33.13;;;17.00;;
16430;SDS011;8325;49.284;7.238;2022-12-18T11:20:31;36.63;;;17.77;;
16430;SDS011;8325;49.284;7.238;2022-12-18T11:24:59;32.60;;;17.00;;
16430;SDS011;8325;49.284;7.238;2022-12-18T11:29:43;35.43;;;16.97;;
16430;SDS011;8325;49.284;7.238;2022-12-18T11:33:59;32.50;;;16.00;;
16430;SDS011;8325;49.284;7.238;2022-12-18T11:50:52;36.27;;;18.17;;
16430;SDS011;8325;49.284;7.238;2022-12-18T11:55:40;39.67;;;17.90;;
16430;SDS011;8325;49.284;7.238;2022-12-18T12:17:38;36.27;;;17.33;;
16430;SDS011;8325;49.284;7.238;2022-12-18T12:30:54;36.70;;;18.20;;
16430;SDS011;8325;49.284;7.238;2022-12-18T12:35:15;36.63;;;17.80;;
16430;SDS011;8325;49.284;7.238;2022-12-18T12:39:47;33.73;;;17.57;;
16430;SDS011;8325;49.284;7.238;2022-12-18T12:44:03;32.00;;;17.40;;
16430;SDS011;8325;49.284;7.238;2022-12-18T12:48:27;36.53;;;19.00;;
16430;SDS011;8325;49.284;7.238;2022-12-18T12:52:59;33.90;;;17.80;;
16430;SDS011;8325;49.284;7.238;2022-12-18T12:57:23;35.00;;;18.03;;
16430;SDS011;8325;49.284;7.238;2022-12-18T13:01:54;31.07;;;17.17;;
16430;SDS011;8325;49.284;7.238;2022-12-18T13:10:59;35.73;;;18.57;;
16430;SDS011;8325;49.284;7.238;2022-12-18T13:19:51;38.50;;;19.83;;
16430;SDS011;8325;49.284;7.238;2022-12-18T13:24:23;32.07;;;18.07;;
16430;SDS011;8325;49.284;7.238;2022-12-18T13:41:43;35.70;;;18.67;;
16430;SDS011;8325;49.284;7.238;2022-12-18T13:46:00;36.10;;;18.10;;
16430;SDS011;8325;49.284;7.238;2022-12-18T13:50:20;35.57;;;18.27;;
16430;SDS011;8325;49.284;7.238;2022-12-18T13:54:39;32.50;;;17.63;;
16430;SDS011;8325;49.284;7.238;2022-12-18T13:59:12;36.03;;;18.80;;
16430;SDS011;8325;49.284;7.238;2022-12-18T14:03:27;30.93;;;17.43;;
16430;SDS011;8325;49.284;7.238;2022-12-18T14:07:40;34.80;;;17.90;;
16430;SDS011;8325;49.284;7.238;2022-12-18T14:11:58;34.83;;;17.63;;
16430;SDS011;8325;49.284;7.238;2022-12-18T14:16:29;39.73;;;19.43;;
16430;SDS011;8325;49.284;7.238;2022-12-18T14:20:43;36.17;;;19.53;;
16430;SDS011;8325;49.284;7.238;2022-12-18T14:29:27;35.00;;;18.03;;
16430;SDS011;8325;49.284;7.238;2022-12-18T14:33:40;33.97;;;18.17;;
16430;SDS011;8325;49.284;7.238;2022-12-18T14:37:52;36.73;;;17.80;;
16430;SDS011;8325;49.284;7.238;2022-12-18T14:42:04;35.93;;;18.63;;
16430;SDS011;8325;49.284;7.238;2022-12-18T14:50:39;37.03;;;19.93;;
16430;SDS011;8325;49.284;7.238;2022-12-18T14:54:50;34.10;;;18.93;;
16430;SDS011;8325;49.284;7.238;2022-12-18T14:59:17;38.53;;;19.17;;
16430;SDS011;8325;49.284;7.238;2022-12-18T15:03:35;34.47;;;18.00;;
16430;SDS011;8325;49.284;7.238;2022-12-18T15:07:48;35.07;;;18.33;;
16430;SDS011;8325;49.284;7.238;2022-12-18T15:12:02;35.23;;;18.10;;
16430;SDS011;8325;49.284;7.238;2022-12-18T15:16:13;37.53;;;18.70;;
16430;SDS011;8325;49.284;7.238;2022-12-18T15:20:25;38.30;;;19.23;;
16430;SDS011;8325;49.284;7.238;2022-12-18T15:24:37;39.83;;;19.80;;
16430;SDS011;8325;49.284;7.238;2022-12-18T15:28:50;37.87;;;19.17;;
16430;SDS011;8325;49.284;7.238;2022-12-18T15:33:22;39.87;;;19.40;;
16430;SDS011;8325;49.284;7.238;2022-12-18T15:37:36;45.23;;;22.53;;
16430;SDS011;8325;49.284;7.238;2022-12-18T15:41:50;39.57;;;18.10;;
16430;SDS011;8325;49.284;7.238;2022-12-18T15:46:24;38.30;;;18.50;;
16430;SDS011;8325;49.284;7.238;2022-12-18T15:50:37;37.10;;;19.63;;
16430;SDS011;8325;49.284;7.238;2022-12-18T15:54:49;45.70;;;22.27;;
16430;SDS011;8325;49.284;7.238;2022-12-18T15:59:19;32.40;;;18.27;;
16430;SDS011;8325;49.284;7.238;2022-12-18T16:03:31;35.90;;;18.80;;
16430;SDS011;8325;49.284;7.238;2022-12-18T16:07:43;36.33;;;19.77;;
16430;SDS011;8325;49.284;7.238;2022-12-18T16:11:56;39.43;;;19.40;;
16430;SDS011;8325;49.284;7.238;2022-12-18T16:16:08;38.53;;;20.27;;
16430;SDS011;8325;49.284;7.238;2022-12-18T16:20:20;37.80;;;20.60;;
16430;SDS011;8325;49.284;7.238;2022-12-18T16:24:33;40.10;;;19.90;;
16430;SDS011;8325;49.284;7.238;2022-12-18T16:28:47;41.77;;;20.17;;
16430;SDS011;8325;49.284;7.238;2022-12-18T16:32:58;34.87;;;19.17;;
16430;SDS011;8325;49.284;7.238;2022-12-18T16:37:11;36.03;;;19.37;;
16430;SDS011;8325;49.284;7.238;2022-12-18T16:41:24;33.57;;;18.80;;
16430;SDS011;8325;49.284;7.238;2022-12-18T16:45:42;34.50;;;18.37;;
16430;SDS011;8325;49.284;7.238;2022-12-18T16:49:53;36.97;;;18.70;;
16430;SDS011;8325;49.284;7.238;2022-12-18T16:54:05;39.40;;;19.97;;
16430;SDS011;8325;49.284;7.238;2022-12-18T16:58:22;39.93;;;20.57;;
16430;SDS011;8325;49.284;7.238;2022-12-18T17:02:34;39.23;;;20.53;;
16430;SDS011;8325;49.284;7.238;2022-12-18T17:06:46;39.00;;;21.13;;
16430;SDS011;8325;49.284;7.238;2022-12-18T17:11:05;36.27;;;19.57;;
16430;SDS011;8325;49.284;7.238;2022-12-18T17:15:18;37.47;;;21.60;;
16430;SDS011;8325;49.284;7.238;2022-12-18T17:19:30;36.93;;;20.63;;
16430;SDS011;8325;49.284;7.238;2022-12-18T17:23:42;39.20;;;19.70;;
16430;SDS011;8325;49.284;7.238;2022-12-18T17:27:54;34.57;;;18.73;;
16430;SDS011;8325;49.284;7.238;2022-12-18T17:32:05;39.37;;;19.43;;
16430;SDS011;8325;49.284;7.238;2022-12-18T17:36:17;33.90;;;18.43;;
16430;SDS011;8325;49.284;7.238;2022-12-18T17:40:31;35.13;;;17.83;;
16430;SDS011;8325;49.284;7.238;2022-12-18T17:44:44;38.93;;;18.27;;
16430;SDS011;8325;49.284;7.238;2022-12-18T17:48:56;36.73;;;19.80;;
16430;SDS011;8325;49.284;7.238;2022-12-18T17:53:08;36.97;;;18.90;;
16430;SDS011;8325;49.284;7.238;2022-12-18T17:57:20;35.73;;;18.60;;
16430;SDS011;8325;49.284;7.238;2022-12-18T18:01:33;38.87;;;19.27;;
16430;SDS011;8325;49.284;7.238;2022-12-18T18:05:54;36.90;;;19.07;;
16430;SDS011;8325;49.284;7.238;2022-12-18T18:10:07;32.17;;;17.53;;
16430;SDS011;8325;49.284;7.238;2022-12-18T18:14:19;30.23;;;16.13;;
16430;SDS011;8325;49.284;7.238;2022-12-18T18:18:31;36.83;;;17.70;;
16430;SDS011;8325;49.284;7.238;2022-12-18T18:22:43;36.30;;;17.37;;
16430;SDS011;8325;49.284;7.238;2022-12-18T18:26:54;33.90;;;18.90;;
16430;SDS011;8325;49.284;7.238;2022-12-18T18:31:07;37.27;;;18.73;;
16430;SDS011;8325;49.284;7.238;2022-12-18T18:35:20;31.50;;;16.30;;
16430;SDS011;8325;49.284;7.238;2022-12-18T18:39:52;30.23;;;17.33;;
16430;SDS011;8325;49.284;7.238;2022-12-18T18:44:03;33.37;;;18.40;;
16430;SDS011;8325;49.284;7.238;2022-12-18T18:48:15;34.63;;;18.00;;
16430;SDS011;8325;49.284;7.238;2022-12-18T18:52:26;37.37;;;19.47;;
16430;SDS011;8325;49.284;7.238;2022-12-18T18:56:38;34.37;;;16.97;;
16430;SDS011;8325;49.284;7.238;2022-12-18T19:01:11;33.47;;;17.93;;
16430;SDS011;8325;49.284;7.238;2022-12-18T19:05:24;31.83;;;18.07;;
16430;SDS011;8325;49.284;7.238;2022-12-18T19:09:36;31.83;;;17.73;;
16430;SDS011;8325;49.284;7.238;2022-12-18T19:13:47;31.33;;;17.87;;
16430;SDS011;8325;49.284;7.238;2022-12-18T19:17:59;38.70;;;19.33;;
16430;SDS011;8325;49.284;7.238;2022-12-18T19:22:10;42.20;;;19.10;;
16430;SDS011;8325;49.284;7.238;2022-12-18T19:26:23;40.90;;;20.30;;
16430;SDS011;8325;49.284;7.238;2022-12-18T19:30:38;43.90;;;22.00;;
16430;SDS011;8325;49.284;7.238;2022-12-18T19:34:51;37.43;;;19.93;;
16430;SDS011;8325;49.284;7.238;2022-12-18T19:39:11;37.17;;;19.33;;
16430;SDS011;8325;49.284;7.238;2022-12-18T19:43:25;38.97;;;20.20;;
16430;SDS011;8325;49.284;7.238;2022-12-18T19:47:37;40.87;;;19.27;;
16430;SDS011;8325;49.284;7.238;2022-12-18T19:51:48;35.07;;;18.13;;
16430;SDS011;8325;49.284;7.238;2022-12-18T19:56:04;37.63;;;19.57;;
16430;SDS011;8325;49.284;7.238;2022-12-18T20:00:17;35.57;;;18.43;;
16430;SDS011;8325;49.284;7.238;2022-12-18T20:04:29;38.47;;;18.93;;
16430;SDS011;8325;49.284;7.238;2022-12-18T20:08:42;47.03;;;21.83;;
16430;SDS011;8325;49.284;7.238;2022-12-18T20:12:53;51.60;;;25.00;;
16430;SDS011;8325;49.284;7.238;2022-12-18T20:17:06;43.23;;;21.00;;
16430;SDS011;8325;49.284;7.238;2022-12-18T20:21:19;47.10;;;21.63;;
16430;SDS011;8325;49.284;7.238;2022-12-18T20:25:31;44.43;;;20.50;;
16430;SDS011;8325;49.284;7.238;2022-12-18T20:29:42;42.57;;;20.67;;
16430;SDS011;8325;49.284;7.238;2022-12-18T20:33:55;33.90;;;18.00;;
16430;SDS011;8325;49.284;7.238;2022-12-18T20:38:11;40.07;;;21.03;;
16430;SDS011;8325;49.284;7.238;2022-12-18T20:42:23;45.47;;;22.77;;
16430;SDS011;8325;49.284;7.238;2022-12-18T20:46:35;41.17;;;19.50;;
16430;SDS011;8325;49.284;7.238;2022-12-18T20:50:55;38.90;;;18.50;;
16430;SDS011;8325;49.284;7.238;2022-12-18T20:55:10;36.10;;;18.17;;
16430;SDS011;8325;49.284;7.238;2022-12-18T20:59:22;38.10;;;18.77;;
16430;SDS011;8325;49.284;7.238;2022-12-18T21:03:36;35.80;;;18.33;;
16430;SDS011;8325;49.284;7.238;2022-12-18T21:07:48;34.17;;;18.37;;
16430;SDS011;8325;49.284;7.238;2022-12-18T21:12:00;35.57;;;17.60;;
16430;SDS011;8325;49.284;7.238;2022-12-18T21:16:30;36.80;;;18.60;;
16430;SDS011;8325;49.284;7.238;2022-12-18T21:20:44;33.07;;;17.97;;
16430;SDS011;8325;49.284;7.238;2022-12-18T21:25:03;33.00;;;17.67;;
16430;SDS011;8325;49.284;7.238;2022-12-18T21:29:22;32.77;;;16.83;;
16430;SDS011;8325;49.284;7.238;2022-12-18T21:33:38;35.73;;;18.03;;
16430;SDS011;8325;49.284;7.238;2022-12-18T21:37:52;35.10;;;17.63;;
16430;SDS011;8325;49.284;7.238;2022-12-18T21:47:18;33.97;;;18.17;;
16430;SDS011;8325;49.284;7.238;2022-12-18T21:51:33;31.70;;;16.97;;
16430;SDS011;8325;49.284;7.238;2022-12-18T21:55:46;30.83;;;17.23;;
16430;SDS011;8325;49.284;7.238;2022-12-18T21:59:57;37.90;;;18.47;;
16430;SDS011;8325;49.284;7.238;2022-12-18T22:04:09;35.30;;;17.87;;
16430;SDS011;8325;49.284;7.238;2022-12-18T22:08:21;34.90;;;17.50;;
16430;SDS011;8325;49.284;7.238;2022-12-18T22:12:32;34.47;;;17.93;;
16430;SDS011;8325;49.284;7.238;2022-12-18T22:16:54;35.67;;;18.30;;
16430;SDS011;8325;49.284;7.238;2022-12-18T22:21:19;41.27;;;18.43;;
16430;SDS011;8325;49.284;7.238;2022-12-18T22:25:40;35.73;;;17.57;;
16430;SDS011;8325;49.284;7.238;2022-12-18T22:29:51;33.40;;;16.67;;
